createdAt,value
2017-11-28T00:00:32.924Z,0
2017-11-28T00:01:13.461Z,0
2017-11-28T00:01:54.057Z,0
2017-11-28T00:02:34.583Z,0
2017-11-28T00:03:15.174Z,0
2017-11-28T00:03:55.740Z,0
2017-11-28T00:04:36.243Z,0
2017-11-28T00:05:16.805Z,0
2017-11-28T00:05:57.412Z,0
2017-11-28T00:06:37.922Z,0
2017-11-28T00:07:18.522Z,0
2017-11-28T00:07:59.088Z,0
2017-11-28T00:08:39.631Z,0
2017-11-28T00:09:20.169Z,0
2017-11-28T00:10:03.973Z,0
2017-11-28T00:10:44.568Z,0
2017-11-28T00:11:25.080Z,0
2017-11-28T00:12:05.571Z,0
2017-11-28T00:12:46.132Z,0
2017-11-28T00:13:26.660Z,0
2017-11-28T00:14:07.216Z,0
2017-11-28T00:14:51.247Z,0
2017-11-28T00:15:31.755Z,0
2017-11-28T00:16:12.305Z,0
2017-11-28T00:16:52.932Z,0
2017-11-28T00:17:33.442Z,0
2017-11-28T00:18:13.980Z,0
2017-11-28T00:18:56.328Z,0
2017-11-28T00:19:36.885Z,0
2017-11-28T00:20:17.390Z,0
2017-11-28T00:20:59.068Z,0
2017-11-28T00:21:39.599Z,0
2017-11-28T00:22:20.196Z,0
2017-11-28T00:23:00.642Z,0
2017-11-28T00:23:41.250Z,0
2017-11-28T00:24:21.798Z,0
2017-11-28T00:25:02.392Z,0
2017-11-28T00:25:42.890Z,0
2017-11-28T00:26:23.488Z,0
2017-11-28T00:27:03.961Z,0
2017-11-28T00:27:44.550Z,0
2017-11-28T00:28:25.081Z,0
2017-11-28T00:29:05.655Z,0
2017-11-28T00:29:46.248Z,0
2017-11-28T00:30:26.800Z,0
2017-11-28T00:31:07.276Z,0
2017-11-28T00:31:47.910Z,0
2017-11-28T00:32:28.409Z,0
2017-11-28T00:33:09.617Z,0
2017-11-28T00:33:50.101Z,0
2017-11-28T00:34:30.661Z,0
2017-11-28T00:35:11.318Z,0
2017-11-28T00:35:51.801Z,0
2017-11-28T00:36:32.339Z,0
2017-11-28T00:37:12.864Z,0
2017-11-28T00:37:56.597Z,0
2017-11-28T00:38:37.182Z,0
2017-11-28T00:39:17.719Z,0
2017-11-28T00:39:58.288Z,0
2017-11-28T00:40:38.865Z,0
2017-11-28T00:41:19.429Z,0
2017-11-28T00:41:59.940Z,0
2017-11-28T00:42:40.519Z,0
2017-11-28T00:43:24.384Z,0
2017-11-28T00:44:04.863Z,0
2017-11-28T00:44:45.452Z,0
2017-11-28T00:45:26.004Z,0
2017-11-28T00:46:06.560Z,0
2017-11-28T00:46:47.091Z,0
2017-11-28T00:47:27.612Z,0
2017-11-28T00:48:11.390Z,0
2017-11-28T00:48:51.998Z,0
2017-11-28T00:49:32.533Z,0
2017-11-28T00:50:13.086Z,0
2017-11-28T00:50:53.706Z,0
2017-11-28T00:51:34.240Z,0
2017-11-28T00:52:14.843Z,0
2017-11-28T00:52:55.397Z,0
2017-11-28T00:53:35.925Z,0
2017-11-28T00:54:16.514Z,0
2017-11-28T00:54:57.022Z,0
2017-11-28T00:55:37.645Z,0
2017-11-28T00:56:18.200Z,0
2017-11-28T00:56:58.715Z,0
2017-11-28T00:57:39.962Z,0
2017-11-28T00:58:20.540Z,0
2017-11-28T00:59:01.092Z,0
2017-11-28T00:59:41.624Z,0
2017-11-28T01:00:22.145Z,0
2017-11-28T01:01:02.706Z,0
2017-11-28T01:01:43.233Z,0
2017-11-28T01:02:23.880Z,0
2017-11-28T01:03:04.396Z,0
2017-11-28T01:03:44.952Z,0
2017-11-28T01:04:28.758Z,0
2017-11-28T01:05:09.342Z,0
2017-11-28T01:05:49.869Z,0
2017-11-28T01:06:30.510Z,0
2017-11-28T01:07:10.975Z,0
2017-11-28T01:07:51.679Z,0
2017-11-28T01:08:35.498Z,0
2017-11-28T01:09:16.023Z,0
2017-11-28T01:09:56.542Z,0
2017-11-28T01:10:37.072Z,0
2017-11-28T01:11:18.046Z,0
2017-11-28T01:11:58.604Z,0
2017-11-28T01:12:39.167Z,0
2017-11-28T01:13:22.106Z,0
2017-11-28T01:14:02.677Z,0
2017-11-28T01:14:43.225Z,0
2017-11-28T01:15:23.780Z,0
2017-11-28T01:16:04.319Z,0
2017-11-28T01:16:44.874Z,0
2017-11-28T01:17:25.464Z,0
2017-11-28T01:18:06.050Z,0
2017-11-28T01:18:46.611Z,0
2017-11-28T01:19:27.187Z,0
2017-11-28T01:20:07.718Z,0
2017-11-28T01:20:48.300Z,0
2017-11-28T01:21:28.802Z,0
2017-11-28T01:22:09.343Z,0
2017-11-28T01:22:49.877Z,0
2017-11-28T01:23:30.430Z,0
2017-11-28T01:24:10.949Z,0
2017-11-28T01:24:51.540Z,0
2017-11-28T01:25:32.058Z,0
2017-11-28T01:26:12.601Z,0
2017-11-28T01:26:53.113Z,0
2017-11-28T01:27:33.676Z,0
2017-11-28T01:28:17.711Z,0
2017-11-28T01:28:58.128Z,0
2017-11-28T01:29:38.676Z,0
2017-11-28T01:30:19.280Z,0
2017-11-28T01:30:59.783Z,0
2017-11-28T01:31:40.315Z,0
2017-11-28T01:32:24.288Z,0
2017-11-28T01:33:04.862Z,0
2017-11-28T01:33:45.395Z,0
2017-11-28T01:34:25.950Z,0
2017-11-28T01:35:06.532Z,0
2017-11-28T01:35:47.052Z,0
2017-11-28T01:36:31.558Z,0
2017-11-28T01:37:12.106Z,0
2017-11-28T01:37:52.709Z,0
2017-11-28T01:38:33.168Z,0
2017-11-28T01:39:13.812Z,0
2017-11-28T01:39:54.297Z,0
2017-11-28T01:40:34.878Z,0
2017-11-28T01:41:15.412Z,0
2017-11-28T01:41:56.040Z,0
2017-11-28T01:42:36.524Z,0
2017-11-28T01:43:17.047Z,0
2017-11-28T01:43:57.550Z,0
2017-11-28T01:44:38.141Z,0
2017-11-28T01:45:18.674Z,0
2017-11-28T01:45:59.216Z,0
2017-11-28T01:46:39.805Z,0
2017-11-28T01:47:20.353Z,0
2017-11-28T01:48:00.839Z,0
2017-11-28T01:48:41.434Z,0
2017-11-28T01:49:21.918Z,0
2017-11-28T01:50:02.507Z,0
2017-11-28T01:50:46.583Z,0
2017-11-28T01:51:27.085Z,0
2017-11-28T01:52:07.683Z,0
2017-11-28T01:52:48.213Z,0
2017-11-28T01:53:28.770Z,0
2017-11-28T01:54:09.316Z,0
2017-11-28T01:54:53.311Z,0
2017-11-28T01:55:33.877Z,0
2017-11-28T01:56:14.459Z,0
2017-11-28T01:56:54.969Z,0
2017-11-28T01:57:35.523Z,0
2017-11-28T01:58:16.102Z,0
2017-11-28T01:58:56.647Z,0
2017-11-28T01:59:39.899Z,0
2017-11-28T02:00:20.428Z,0
2017-11-28T02:01:00.997Z,0
2017-11-28T02:01:41.548Z,0
2017-11-28T02:02:22.118Z,0
2017-11-28T02:03:02.644Z,0
2017-11-28T02:03:43.180Z,0
2017-11-28T02:04:23.726Z,0
2017-11-28T02:05:04.313Z,0
2017-11-28T02:05:44.912Z,0
2017-11-28T02:06:25.448Z,0
2017-11-28T02:07:05.914Z,0
2017-11-28T02:07:46.442Z,0
2017-11-28T02:08:27.038Z,0
2017-11-28T02:09:07.575Z,0
2017-11-28T02:09:48.120Z,0
2017-11-28T02:10:28.681Z,0
2017-11-28T02:11:09.182Z,0
2017-11-28T02:11:49.706Z,0
2017-11-28T02:12:30.362Z,0
2017-11-28T02:13:10.831Z,0
2017-11-28T02:13:51.404Z,0
2017-11-28T02:14:32.037Z,0
2017-11-28T02:15:12.623Z,0
2017-11-28T02:15:56.629Z,0
2017-11-28T02:16:37.168Z,0
2017-11-28T02:17:17.784Z,0
2017-11-28T02:17:58.323Z,0
2017-11-28T02:18:38.830Z,0
2017-11-28T02:19:19.382Z,0
2017-11-28T02:20:03.222Z,0
2017-11-28T02:20:43.831Z,0
2017-11-28T02:21:24.384Z,0
2017-11-28T02:22:04.938Z,0
2017-11-28T02:22:45.486Z,0
2017-11-28T02:23:26.056Z,0
2017-11-28T02:24:06.562Z,0
2017-11-28T02:24:50.528Z,0
2017-11-28T02:25:31.110Z,0
2017-11-28T02:26:11.650Z,0
2017-11-28T02:26:52.251Z,0
2017-11-28T02:27:32.770Z,0
2017-11-28T02:28:13.394Z,0
2017-11-28T02:28:53.815Z,0
2017-11-28T02:29:34.379Z,0
2017-11-28T02:30:14.917Z,0
2017-11-28T02:30:55.501Z,0
2017-11-28T02:31:36.068Z,0
2017-11-28T02:32:16.624Z,0
2017-11-28T02:32:57.152Z,0
2017-11-28T02:36:31.185Z,0
2017-11-28T02:37:11.623Z,0
2017-11-28T02:37:52.217Z,0
2017-11-28T02:38:32.791Z,0
2017-11-28T02:39:13.390Z,0
2017-11-28T02:39:56.842Z,0
2017-11-28T02:40:37.455Z,0
2017-11-28T02:41:17.952Z,0
2017-11-28T02:41:58.525Z,0
2017-11-28T02:42:39.080Z,0
2017-11-28T02:43:19.716Z,0
2017-11-28T02:44:00.290Z,0
2017-11-28T02:44:40.859Z,0
2017-11-28T02:45:21.358Z,0
2017-11-28T02:46:01.950Z,0
2017-11-28T02:46:42.447Z,0
2017-11-28T02:47:23.032Z,0
2017-11-28T02:48:03.551Z,0
2017-11-28T02:48:44.048Z,0
2017-11-28T02:49:24.621Z,0
2017-11-28T02:50:05.180Z,0
2017-11-28T02:50:45.668Z,0
2017-11-28T02:51:26.254Z,0
2017-11-28T02:52:06.793Z,0
2017-11-28T02:52:47.351Z,0
2017-11-28T02:53:27.956Z,0
2017-11-28T02:54:08.481Z,0
2017-11-28T02:54:49.061Z,0
2017-11-28T02:55:29.654Z,0
2017-11-28T02:56:10.125Z,0
2017-11-28T02:56:53.925Z,0
2017-11-28T02:57:34.606Z,0
2017-11-28T02:58:15.125Z,0
2017-11-28T02:58:55.741Z,0
2017-11-28T02:59:36.227Z,0
2017-11-28T03:00:16.918Z,0
2017-11-28T03:00:57.342Z,0
2017-11-28T03:01:37.932Z,0
2017-11-28T03:02:21.950Z,0
2017-11-28T03:03:02.482Z,0
2017-11-28T03:03:43.074Z,0
2017-11-28T03:04:23.607Z,0
2017-11-28T03:05:04.212Z,0
2017-11-28T03:05:44.721Z,0
2017-11-28T03:06:25.313Z,0
2017-11-28T03:07:08.873Z,0
2017-11-28T03:07:49.405Z,0
2017-11-28T03:08:29.958Z,0
2017-11-28T03:09:10.537Z,0
2017-11-28T03:09:51.037Z,0
2017-11-28T03:10:31.721Z,0
2017-11-28T03:11:12.242Z,0
2017-11-28T03:11:52.781Z,0
2017-11-28T03:12:33.303Z,0
2017-11-28T03:13:13.893Z,0
2017-11-28T03:13:54.390Z,0
2017-11-28T03:14:34.969Z,0
2017-11-28T03:15:15.523Z,0
2017-11-28T03:15:56.110Z,0
2017-11-28T03:16:36.660Z,0
2017-11-28T03:17:17.311Z,0
2017-11-28T03:17:57.761Z,0
2017-11-28T03:18:38.414Z,0
2017-11-28T03:19:18.862Z,0
2017-11-28T03:19:59.419Z,0
2017-11-28T03:20:39.957Z,0
2017-11-28T03:21:20.526Z,0
2017-11-28T03:22:01.066Z,0
2017-11-28T03:22:41.634Z,0
2017-11-28T03:23:22.244Z,0
2017-11-28T03:24:02.785Z,0
2017-11-28T03:24:43.292Z,0
2017-11-28T03:25:23.891Z,0
2017-11-28T03:26:08.393Z,0
2017-11-28T03:26:48.763Z,0
2017-11-28T03:27:29.336Z,0
2017-11-28T03:28:09.967Z,0
2017-11-28T03:28:50.520Z,0
2017-11-28T03:29:34.263Z,0
2017-11-28T03:30:14.746Z,0
2017-11-28T03:30:55.310Z,0
2017-11-28T03:31:35.863Z,0
2017-11-28T03:32:16.415Z,0
2017-11-28T03:32:56.964Z,0
2017-11-28T03:33:37.553Z,0
2017-11-28T03:34:21.257Z,0
2017-11-28T03:35:01.855Z,0
2017-11-28T03:35:42.361Z,0
2017-11-28T03:36:22.972Z,0
2017-11-28T03:37:03.467Z,0
2017-11-28T03:37:44.075Z,0
2017-11-28T03:38:24.555Z,0
2017-11-28T03:39:05.094Z,0
2017-11-28T03:39:45.624Z,0
2017-11-28T03:40:26.206Z,0
2017-11-28T03:41:06.740Z,0
2017-11-28T03:41:47.316Z,0
2017-11-28T03:42:27.763Z,0
2017-11-28T03:43:08.287Z,0
2017-11-28T03:43:48.816Z,0
2017-11-28T03:44:29.512Z,0
2017-11-28T03:45:10.061Z,0
2017-11-28T03:45:50.621Z,0
2017-11-28T03:46:31.111Z,0
2017-11-28T03:47:11.637Z,0
2017-11-28T03:47:52.133Z,0
2017-11-28T03:48:32.720Z,0
2017-11-28T03:49:16.286Z,0
2017-11-28T03:49:56.893Z,0
2017-11-28T03:50:37.513Z,0
2017-11-28T03:51:18.000Z,0
2017-11-28T03:51:58.521Z,0
2017-11-28T03:52:39.176Z,0
2017-11-28T03:53:23.120Z,0
2017-11-28T03:54:03.637Z,0
2017-11-28T03:54:44.186Z,0
2017-11-28T03:55:24.804Z,0
2017-11-28T03:56:05.419Z,0
2017-11-28T03:56:45.937Z,0
2017-11-28T03:57:29.278Z,0
2017-11-28T03:58:09.850Z,0
2017-11-28T03:58:50.388Z,0
2017-11-28T03:59:30.950Z,0
2017-11-28T04:00:11.479Z,0
2017-11-28T04:00:52.036Z,0
2017-11-28T04:01:32.499Z,0
2017-11-28T04:43:20.555Z,0
2017-11-28T04:44:00.793Z,0
2017-11-28T04:44:41.193Z,0
2017-11-28T04:45:21.571Z,0
2017-11-28T04:46:01.963Z,0
2017-11-28T04:46:42.380Z,0
2017-11-28T04:47:22.774Z,0
2017-11-28T04:48:03.341Z,0
2017-11-28T04:48:43.816Z,0
2017-11-28T04:49:24.286Z,0
2017-11-28T04:50:04.713Z,0
2017-11-28T04:50:45.089Z,0
2017-11-28T04:51:25.521Z,0
2017-11-28T04:52:05.923Z,0
2017-11-28T04:52:46.310Z,0
2017-11-28T04:53:26.864Z,0
2017-11-28T04:54:07.195Z,0
2017-11-28T04:54:47.620Z,0
2017-11-28T04:55:28.389Z,0
2017-11-28T04:56:08.752Z,0
2017-11-28T04:56:51.553Z,0
2017-11-28T04:57:31.963Z,0
2017-11-28T04:58:12.538Z,0
2017-11-28T04:58:52.845Z,0
2017-11-28T04:59:33.791Z,0
2017-11-28T05:00:14.012Z,0
2017-11-28T05:00:54.628Z,0
2017-11-28T05:01:35.415Z,0
2017-11-28T05:02:16.201Z,0
2017-11-28T05:02:56.393Z,0
2017-11-28T05:03:36.806Z,0
2017-11-28T05:04:17.272Z,0
2017-11-28T05:04:57.668Z,0
2017-11-28T05:05:38.077Z,0
2017-11-28T05:06:18.877Z,0
2017-11-28T05:06:59.780Z,0
2017-11-28T05:07:40.265Z,0
2017-11-28T05:08:21.130Z,0
2017-11-28T05:09:02.644Z,0
2017-11-28T05:09:43.605Z,0
2017-11-28T05:10:24.268Z,0
2017-11-28T05:11:04.674Z,0
2017-11-28T05:11:45.585Z,0
2017-11-28T05:12:27.088Z,0
2017-11-28T05:13:07.535Z,0
2017-11-28T05:13:48.718Z,0
2017-11-28T05:14:29.360Z,0
2017-11-28T05:15:09.685Z,0
2017-11-28T05:15:50.533Z,0
2017-11-28T05:16:30.822Z,0
2017-11-28T05:17:11.268Z,0
2017-11-28T05:17:51.633Z,0
2017-11-28T05:18:32.107Z,0
2017-11-28T05:19:12.433Z,0
2017-11-28T05:19:52.844Z,0
2017-11-28T05:20:33.203Z,0
2017-11-28T05:21:13.641Z,0
2017-11-28T05:21:54.286Z,0
2017-11-28T05:22:34.455Z,0
2017-11-28T05:23:14.888Z,0
2017-11-28T05:23:55.276Z,0
2017-11-28T05:24:35.721Z,0
2017-11-28T05:25:16.838Z,0
2017-11-28T05:25:57.224Z,0
2017-11-28T05:26:37.971Z,0
2017-11-28T05:27:18.352Z,0
2017-11-28T05:27:58.808Z,0
2017-11-28T05:28:39.286Z,0
2017-11-28T05:29:19.699Z,0
2017-11-28T05:30:00.092Z,0
2017-11-28T05:30:40.571Z,0
2017-11-28T05:31:20.959Z,0
2017-11-28T05:32:01.803Z,0
2017-11-28T05:32:42.585Z,0
2017-11-28T05:33:22.938Z,0
2017-11-28T05:34:03.624Z,0
2017-11-28T05:34:43.991Z,0
2017-11-28T05:35:24.393Z,0
2017-11-28T05:36:04.908Z,0
2017-11-28T05:36:45.253Z,0
2017-11-28T05:37:25.700Z,0
2017-11-28T05:38:06.165Z,0
2017-11-28T05:38:46.619Z,0
2017-11-28T05:39:26.985Z,0
2017-11-28T05:40:07.394Z,0
2017-11-28T05:40:47.800Z,0
2017-11-28T05:41:28.185Z,0
2017-11-28T05:42:09.081Z,0
2017-11-28T05:42:49.602Z,0
2017-11-28T05:43:30.067Z,0
2017-11-28T05:44:10.630Z,0
2017-11-28T05:44:50.838Z,0
2017-11-28T05:45:31.230Z,0
2017-11-28T05:46:11.813Z,0
2017-11-28T05:46:52.060Z,0
2017-11-28T05:47:32.487Z,0
2017-11-28T05:48:12.911Z,0
2017-11-28T05:48:54.152Z,0
2017-11-28T05:49:34.420Z,0
2017-11-28T05:50:14.730Z,0
2017-11-28T05:52:47.354Z,0
2017-11-28T05:53:27.659Z,0
2017-11-28T05:54:08.659Z,0
2017-11-28T05:54:49.171Z,0
2017-11-28T05:55:29.481Z,0
2017-11-28T05:56:10.032Z,0
2017-11-28T05:56:50.675Z,0
2017-11-28T05:57:31.103Z,0
2017-11-28T05:58:11.638Z,0
2017-11-28T05:58:52.495Z,0
2017-11-28T05:59:32.965Z,0
2017-11-28T06:00:13.344Z,0
2017-11-28T06:00:53.748Z,0
2017-11-28T06:01:34.177Z,0
2017-11-28T06:02:14.548Z,0
2017-11-28T06:02:54.994Z,0
2017-11-28T06:03:35.471Z,0
2017-11-28T06:04:15.795Z,0
2017-11-28T06:04:56.179Z,0
2017-11-28T06:05:36.615Z,0
2017-11-28T06:06:17.003Z,0
2017-11-28T06:06:57.401Z,0
2017-11-28T06:07:37.765Z,0
2017-11-28T06:08:18.214Z,0
2017-11-28T06:08:59.560Z,0
2017-11-28T06:09:39.381Z,0
2017-11-28T06:10:19.815Z,0
2017-11-28T06:11:00.193Z,0
2017-11-28T06:11:40.602Z,0
2017-11-28T06:12:21.025Z,0
2017-11-28T06:13:01.428Z,0
2017-11-28T06:13:41.838Z,0
2017-11-28T06:14:22.270Z,0
2017-11-28T06:15:02.658Z,0
2017-11-28T06:15:43.040Z,0
2017-11-28T06:16:23.490Z,0
2017-11-28T06:17:03.905Z,0
2017-11-28T06:17:44.292Z,0
2017-11-28T06:18:24.726Z,0
2017-11-28T06:19:05.112Z,0
2017-11-28T06:19:45.549Z,0
2017-11-28T06:20:25.940Z,0
2017-11-28T06:21:06.333Z,0
2017-11-28T06:21:46.784Z,0
2017-11-28T06:22:27.388Z,0
2017-11-28T06:23:07.887Z,0
2017-11-28T06:23:48.259Z,0
2017-11-28T06:24:28.637Z,0
2017-11-28T06:25:09.001Z,0
2017-11-28T06:25:49.393Z,0
2017-11-28T06:26:29.775Z,0
2017-11-28T06:27:10.208Z,0
2017-11-28T06:27:50.630Z,0
2017-11-28T06:28:31.027Z,0
2017-11-28T06:29:11.437Z,0
2017-11-28T06:29:51.834Z,0
2017-11-28T06:30:32.262Z,0
2017-11-28T06:31:12.637Z,0
2017-11-28T06:31:53.045Z,0
2017-11-28T06:32:33.452Z,0
2017-11-28T06:33:13.820Z,0
2017-11-28T06:33:54.241Z,0
2017-11-28T06:34:34.642Z,0
2017-11-28T06:35:15.070Z,0
2017-11-28T06:37:47.547Z,0
2017-11-28T06:38:26.875Z,0
2017-11-28T06:39:07.243Z,0
2017-11-28T06:39:47.644Z,0
2017-11-28T06:40:28.063Z,0
2017-11-28T06:41:08.451Z,0
2017-11-28T06:41:48.873Z,0
2017-11-28T06:42:29.262Z,0
2017-11-28T06:43:09.663Z,0
2017-11-28T06:43:50.066Z,0
2017-11-28T06:44:30.496Z,0
2017-11-28T06:45:10.934Z,0
2017-11-28T06:45:51.304Z,0
2017-11-28T06:46:31.746Z,0
2017-11-28T06:47:12.217Z,0
2017-11-28T06:47:52.657Z,0
2017-11-28T06:48:33.074Z,0
2017-11-28T06:49:14.955Z,0
2017-11-28T06:49:55.353Z,0
2017-11-28T06:50:35.886Z,0
2017-11-28T06:51:16.248Z,0
2017-11-28T06:51:56.630Z,0
2017-11-28T06:52:37.190Z,0
2017-11-28T06:53:18.307Z,0
2017-11-28T06:53:59.065Z,0
2017-11-28T06:54:39.150Z,0
2017-11-28T06:55:19.586Z,0
2017-11-28T06:56:00.219Z,0
2017-11-28T06:56:41.148Z,0
2017-11-28T06:57:21.886Z,0
2017-11-28T06:58:03.312Z,0
2017-11-28T06:58:43.565Z,0
2017-11-28T06:59:24.668Z,0
2017-11-28T07:00:05.029Z,0
2017-11-28T07:00:45.372Z,0
2017-11-28T07:01:26.090Z,0
2017-11-28T07:02:06.514Z,0
2017-11-28T07:02:46.964Z,0
2017-11-28T07:03:27.593Z,0
2017-11-28T07:04:08.215Z,0
2017-11-28T07:04:48.705Z,0
2017-11-28T07:05:29.146Z,0
2017-11-28T07:06:10.511Z,0
2017-11-28T07:06:50.564Z,0
2017-11-28T07:07:31.564Z,0
2017-11-28T07:08:12.786Z,0
2017-11-28T07:08:53.201Z,0
2017-11-28T07:09:34.656Z,0
2017-11-28T07:10:15.495Z,0
2017-11-28T07:10:55.960Z,0
2017-11-28T07:11:36.714Z,0
2017-11-28T07:12:17.294Z,0
2017-11-28T07:12:58.126Z,0
2017-11-28T07:13:38.832Z,0
2017-11-28T07:14:19.473Z,0
2017-11-28T07:15:00.780Z,0
2017-11-28T07:15:40.739Z,0
2017-11-28T07:16:21.569Z,0
2017-11-28T07:17:02.809Z,0
2017-11-28T07:17:42.665Z,0
2017-11-28T07:18:23.658Z,0
2017-11-28T07:19:04.595Z,0
2017-11-28T07:19:44.972Z,0
2017-11-28T07:20:25.776Z,0
2017-11-28T07:21:06.470Z,5
2017-11-28T07:21:46.982Z,5
2017-11-28T07:22:27.910Z,5
2017-11-28T07:23:09.314Z,5
2017-11-28T07:23:49.319Z,5
2017-11-28T07:24:30.346Z,5
2017-11-28T07:25:10.444Z,5
2017-11-28T07:25:51.228Z,5
2017-11-28T07:26:31.719Z,5
2017-11-28T07:27:12.560Z,5
2017-11-28T07:27:53.054Z,5
2017-11-28T07:28:33.404Z,5
2017-11-28T07:29:14.390Z,5
2017-11-28T07:30:00.303Z,5
2017-11-28T07:30:41.115Z,5
2017-11-28T07:31:21.863Z,5
2017-11-28T07:32:02.448Z,5
2017-11-28T07:32:47.375Z,5
2017-11-28T07:33:28.645Z,5
2017-11-28T07:34:08.507Z,5
2017-11-28T07:34:48.967Z,5
2017-11-28T07:35:29.846Z,5
2017-11-28T07:36:10.349Z,5
2017-11-28T07:36:51.165Z,5
2017-11-28T07:37:31.726Z,10
2017-11-28T07:38:17.943Z,10
2017-11-28T07:38:57.954Z,10
2017-11-28T07:39:40.345Z,10
2017-11-28T07:40:22.118Z,10
2017-11-28T07:41:02.906Z,15
2017-11-28T07:41:44.079Z,15
2017-11-28T07:42:25.023Z,15
2017-11-28T07:43:05.309Z,15
2017-11-28T07:43:45.605Z,20
2017-11-28T07:44:27.320Z,20
2017-11-28T07:45:07.405Z,20
2017-11-28T07:45:48.009Z,20
2017-11-28T07:46:28.734Z,20
2017-11-28T07:47:11.941Z,20
2017-11-28T07:47:52.472Z,20
2017-11-28T07:48:34.146Z,20
2017-11-28T07:49:14.978Z,20
2017-11-28T07:49:55.290Z,20
2017-11-28T07:50:37.001Z,20
2017-11-28T07:51:16.776Z,25
2017-11-28T07:51:57.394Z,25
2017-11-28T07:52:38.985Z,25
2017-11-28T07:53:18.802Z,25
2017-11-28T07:54:02.964Z,25
2017-11-28T07:54:42.226Z,25
2017-11-28T07:55:24.401Z,25
2017-11-28T07:56:05.265Z,25
2017-11-28T07:56:47.312Z,25
2017-11-28T07:57:27.920Z,25
2017-11-28T07:58:08.216Z,25
2017-11-28T07:58:50.654Z,25
2017-11-28T07:59:34.330Z,25
2017-11-28T08:00:15.277Z,25
2017-11-28T08:00:56.201Z,30
2017-11-28T08:01:37.480Z,30
2017-11-28T08:02:18.043Z,30
2017-11-28T08:02:59.371Z,30
2017-11-28T08:03:41.398Z,30
2017-11-28T08:04:21.897Z,30
2017-11-28T08:05:02.830Z,30
2017-11-28T08:05:48.004Z,30
2017-11-28T08:06:27.962Z,30
2017-11-28T08:07:08.862Z,30
2017-11-28T08:07:51.005Z,30
2017-11-28T08:08:33.326Z,30
2017-11-28T08:09:14.598Z,30
2017-11-28T08:09:57.520Z,30
2017-11-28T08:10:37.594Z,30
2017-11-28T08:11:18.267Z,30
2017-11-28T08:11:58.760Z,30
2017-11-28T08:12:39.306Z,30
2017-11-28T08:13:20.035Z,30
2017-11-28T08:14:00.451Z,35
2017-11-28T08:14:41.459Z,35
2017-11-28T08:15:22.636Z,35
2017-11-28T08:16:03.337Z,35
2017-11-28T08:16:43.402Z,35
2017-11-28T08:17:24.006Z,35
2017-11-28T08:18:05.319Z,35
2017-11-28T08:18:45.465Z,35
2017-11-28T08:19:25.974Z,35
2017-11-28T08:20:07.315Z,35
2017-11-28T08:20:47.697Z,35
2017-11-28T08:21:28.526Z,35
2017-11-28T08:22:09.227Z,35
2017-11-28T08:22:50.932Z,35
2017-11-28T08:23:31.108Z,35
2017-11-28T08:24:11.819Z,35
2017-11-28T08:24:52.564Z,35
2017-11-28T08:25:33.097Z,35
2017-11-28T08:26:13.768Z,35
2017-11-28T08:26:54.818Z,40
2017-11-28T08:27:35.487Z,40
2017-11-28T08:28:16.608Z,40
2017-11-28T08:28:57.867Z,35
2017-11-28T08:29:38.350Z,40
2017-11-28T08:30:18.638Z,40
2017-11-28T08:30:59.794Z,40
2017-11-28T08:31:39.883Z,40
2017-11-28T08:32:20.459Z,40
2017-11-28T08:33:01.354Z,40
2017-11-28T08:33:41.784Z,40
2017-11-28T08:34:22.202Z,40
2017-11-28T08:35:02.585Z,40
2017-11-28T08:35:43.079Z,35
2017-11-28T08:36:23.485Z,35
2017-11-28T08:37:03.878Z,35
2017-11-28T08:37:44.380Z,35
2017-11-28T08:38:24.760Z,40
2017-11-28T08:39:05.147Z,40
2017-11-28T08:39:45.617Z,40
2017-11-28T08:40:26.112Z,40
2017-11-28T08:41:06.482Z,40
2017-11-28T08:41:46.875Z,40
2017-11-28T08:42:27.396Z,40
2017-11-28T08:43:07.899Z,40
2017-11-28T08:43:48.154Z,40
2017-11-28T08:44:28.628Z,40
2017-11-28T08:45:08.990Z,40
2017-11-28T08:45:49.424Z,40
2017-11-28T08:46:29.845Z,40
2017-11-28T08:47:10.715Z,40
2017-11-28T08:47:51.280Z,40
2017-11-28T08:48:31.444Z,40
2017-11-28T08:49:11.841Z,40
2017-11-28T08:49:52.437Z,40
2017-11-28T08:50:33.045Z,40
2017-11-28T08:51:13.440Z,40
2017-11-28T08:51:53.903Z,40
2017-11-28T08:52:34.355Z,40
2017-11-28T08:53:14.796Z,40
2017-11-28T08:53:55.223Z,40
2017-11-28T08:54:35.835Z,40
2017-11-28T08:55:16.224Z,40
2017-11-28T08:55:56.600Z,40
2017-11-28T08:56:37.173Z,40
2017-11-28T08:57:17.693Z,40
2017-11-28T08:57:58.111Z,40
2017-11-28T08:58:38.627Z,40
2017-11-28T08:59:19.075Z,40
2017-11-28T08:59:59.486Z,40
2017-11-28T09:00:40.180Z,45
2017-11-28T09:01:20.746Z,45
2017-11-28T09:02:01.438Z,45
2017-11-28T09:02:41.980Z,45
2017-11-28T09:03:22.482Z,45
2017-11-28T09:04:03.039Z,45
2017-11-28T09:04:43.398Z,45
2017-11-28T09:05:23.866Z,45
2017-11-28T09:06:04.593Z,45
2017-11-28T09:06:44.976Z,45
2017-11-28T09:07:25.581Z,45
2017-11-28T09:08:06.954Z,45
2017-11-28T09:08:47.428Z,45
2017-11-28T09:09:27.860Z,45
2017-11-28T09:10:08.510Z,45
2017-11-28T09:10:48.835Z,45
2017-11-28T09:11:29.371Z,45
2017-11-28T09:12:09.735Z,45
2017-11-28T09:18:34.428Z,45
2017-11-28T09:19:19.062Z,45
2017-11-28T09:19:59.395Z,45
2017-11-28T09:20:43.431Z,45
2017-11-28T09:21:24.592Z,45
2017-11-28T09:22:07.300Z,45
2017-11-28T09:22:50.585Z,45
2017-11-28T09:23:35.955Z,45
2017-11-28T09:24:19.805Z,45
2017-11-28T09:25:01.168Z,45
2017-11-28T09:25:48.637Z,45
2017-11-28T09:26:32.327Z,45
2017-11-28T09:27:14.415Z,45
2017-11-28T09:27:54.138Z,45
2017-11-28T09:31:32.661Z,45
2017-11-28T09:32:14.130Z,45
2017-11-28T09:32:55.465Z,45
2017-11-28T09:33:36.247Z,45
2017-11-28T09:34:21.054Z,45
2017-11-28T09:35:01.799Z,45
2017-11-28T09:35:43.027Z,45
2017-11-28T09:36:24.432Z,45
2017-11-28T09:37:09.016Z,45
2017-11-28T09:37:49.808Z,45
2017-11-28T09:38:30.565Z,45
2017-11-28T09:39:11.682Z,45
2017-11-28T09:41:34.190Z,45
2017-11-28T09:42:15.057Z,45
2017-11-28T09:42:57.613Z,45
2017-11-28T09:43:38.613Z,45
2017-11-28T09:44:19.061Z,45
2017-11-28T09:45:02.902Z,45
2017-11-28T09:45:49.368Z,45
2017-11-28T09:46:29.888Z,45
2017-11-28T09:47:11.720Z,45
2017-11-28T09:47:54.063Z,45
2017-11-28T09:48:40.196Z,45
2017-11-28T09:49:20.913Z,45
2017-11-28T09:50:01.322Z,45
2017-11-28T09:50:44.466Z,45
2017-11-28T09:51:24.900Z,45
2017-11-28T09:53:40.297Z,45
2017-11-28T09:54:25.006Z,45
2017-11-28T09:55:06.410Z,45
2017-11-28T09:55:46.320Z,45
2017-11-28T09:56:26.743Z,45
2017-11-28T09:57:08.237Z,45
2017-11-28T09:57:49.626Z,45
2017-11-28T09:58:30.254Z,45
2017-11-28T09:59:11.705Z,45
2017-11-28T09:59:52.241Z,45
2017-11-28T10:00:35.412Z,45
2017-11-28T10:01:21.139Z,45
2017-11-28T10:02:01.381Z,45
2017-11-28T10:02:41.885Z,45
2017-11-28T10:03:24.160Z,45
2017-11-28T10:41:51.125Z,50
2017-11-28T10:42:34.334Z,50
2017-11-28T10:43:15.932Z,50
2017-11-28T10:43:57.495Z,45
2017-11-28T10:44:38.566Z,45
2017-11-28T10:45:19.779Z,45
2017-11-28T10:46:00.216Z,50
2017-11-28T10:46:41.974Z,50
2017-11-28T10:47:22.834Z,50
2017-11-28T10:48:03.643Z,50
2017-11-28T10:48:46.541Z,40
2017-11-28T10:49:27.003Z,45
2017-11-28T10:50:07.618Z,40
2017-11-28T10:50:49.694Z,40
2017-11-28T10:51:31.236Z,40
2017-11-28T10:52:12.521Z,30
2017-11-28T10:52:53.981Z,25
2017-11-28T10:53:35.576Z,25
2017-11-28T10:54:17.284Z,25
2017-11-28T10:54:58.614Z,40
2017-11-28T10:55:40.185Z,40
2017-11-28T10:56:22.389Z,40
2017-11-28T10:57:03.811Z,40
2017-11-28T10:57:46.125Z,35
2017-11-28T10:58:29.573Z,25
2017-11-28T10:59:10.197Z,40
2017-11-28T10:59:50.951Z,45
2017-11-28T11:00:32.649Z,25
2017-11-28T11:01:13.159Z,25
2017-11-28T11:01:54.137Z,30
2017-11-28T11:02:35.131Z,30
2017-11-28T11:03:16.699Z,25
2017-11-28T11:03:57.543Z,30
2017-11-28T11:04:44.640Z,25
2017-11-28T11:05:27.891Z,35
2017-11-28T11:06:10.148Z,35
2017-11-28T11:06:53.768Z,25
2017-11-28T11:07:35.093Z,25
2017-11-28T11:08:15.486Z,25
2017-11-28T11:08:59.624Z,25
2017-11-28T11:09:41.489Z,40
2017-11-28T11:10:24.301Z,40
2017-11-28T11:11:07.900Z,25
2017-11-28T11:11:50.623Z,25
2017-11-28T11:12:35.109Z,30
2017-11-28T11:13:18.235Z,40
2017-11-28T11:14:00.786Z,40
2017-11-28T11:14:41.431Z,40
2017-11-28T11:15:23.158Z,25
2017-11-28T11:16:07.729Z,25
2017-11-28T11:16:48.419Z,30
2017-11-28T11:17:33.665Z,35
2017-11-28T11:18:14.416Z,45
2017-11-28T11:18:55.876Z,45
2017-11-28T11:19:38.084Z,45
2017-11-28T11:20:22.228Z,45
2017-11-28T11:21:04.906Z,50
2017-11-28T11:21:46.414Z,35
2017-11-28T11:22:27.516Z,40
2017-11-28T11:23:09.054Z,35
2017-11-28T11:23:50.728Z,40
2017-11-28T11:24:31.150Z,40
2017-11-28T11:25:13.817Z,40
2017-11-28T11:25:56.857Z,35
2017-11-28T11:26:39.933Z,35
2017-11-28T11:27:23.004Z,45
2017-11-28T11:28:06.410Z,40
2017-11-28T11:28:48.218Z,35
2017-11-28T11:29:28.243Z,30
2017-11-28T11:30:08.820Z,30
2017-11-28T11:30:51.120Z,30
2017-11-28T11:31:32.122Z,30
2017-11-28T11:32:13.161Z,30
2017-11-28T11:35:03.264Z,25
2017-11-28T11:36:13.496Z,25
2017-11-28T11:36:58.069Z,25
2017-11-28T11:37:38.517Z,25
2017-11-28T11:38:19.011Z,25
2017-11-28T11:39:00.630Z,30